sensor_id;sensor_type;location;lat;lon;timestamp;P1;durP1;ratioP1;P2;durP2;ratioP2
22107;SDS011;11220;48.812;9.128;2024-01-30T00:01:57;0.30;;;0.30;;
22107;SDS011;11220;48.812;9.128;2024-01-30T00:04:22;0.30;;;0.30;;
22107;SDS011;11220;48.812;9.128;2024-01-30T00:06:48;0.40;;;0.30;;
22107;SDS011;11220;48.812;9.128;2024-01-30T00:09:13;0.40;;;0.25;;
22107;SDS011;11220;48.812;9.128;2024-01-30T00:11:39;0.35;;;0.30;;
22107;SDS011;11220;48.812;9.128;2024-01-30T00:14:04;0.25;;;0.25;;
22107;SDS011;11220;48.812;9.128;2024-01-30T00:16:30;0.40;;;0.20;;
22107;SDS011;11220;48.812;9.128;2024-01-30T00:18:56;0.30;;;0.30;;
22107;SDS011;11220;48.812;9.128;2024-01-30T00:21:22;0.30;;;0.28;;
22107;SDS011;11220;48.812;9.128;2024-01-30T00:23:48;0.32;;;0.22;;
22107;SDS011;11220;48.812;9.128;2024-01-30T00:26:14;0.30;;;0.20;;
22107;SDS011;11220;48.812;9.128;2024-01-30T00:28:42;0.40;;;0.30;;
22107;SDS011;11220;48.812;9.128;2024-01-30T00:31:08;0.35;;;0.20;;
22107;SDS011;11220;48.812;9.128;2024-01-30T00:33:37;0.37;;;0.30;;
22107;SDS011;11220;48.812;9.128;2024-01-30T00:36:07;0.23;;;0.23;;
22107;SDS011;11220;48.812;9.128;2024-01-30T00:38:33;0.30;;;0.20;;
22107;SDS011;11220;48.812;9.128;2024-01-30T00:40:59;0.30;;;0.30;;
22107;SDS011;11220;48.812;9.128;2024-01-30T00:43:24;0.40;;;0.30;;
22107;SDS011;11220;48.812;9.128;2024-01-30T00:45:50;0.30;;;0.30;;
22107;SDS011;11220;48.812;9.128;2024-01-30T00:48:17;0.30;;;0.22;;
22107;SDS011;11220;48.812;9.128;2024-01-30T00:50:43;0.28;;;0.20;;
22107;SDS011;11220;48.812;9.128;2024-01-30T00:53:09;0.38;;;0.20;;
22107;SDS011;11220;48.812;9.128;2024-01-30T00:55:35;0.20;;;0.20;;
22107;SDS011;11220;48.812;9.128;2024-01-30T00:58:00;0.20;;;0.20;;
22107;SDS011;11220;48.812;9.128;2024-01-30T01:00:26;0.40;;;0.30;;
22107;SDS011;11220;48.812;9.128;2024-01-30T01:02:54;0.30;;;0.22;;
22107;SDS011;11220;48.812;9.128;2024-01-30T01:05:23;0.20;;;0.20;;
22107;SDS011;11220;48.812;9.128;2024-01-30T01:07:48;0.25;;;0.25;;
22107;SDS011;11220;48.812;9.128;2024-01-30T01:10:14;0.20;;;0.20;;
22107;SDS011;11220;48.812;9.128;2024-01-30T01:12:41;0.43;;;0.30;;
22107;SDS011;11220;48.812;9.128;2024-01-30T01:15:07;0.28;;;0.28;;
22107;SDS011;11220;48.812;9.128;2024-01-30T01:17:34;0.40;;;0.28;;
22107;SDS011;11220;48.812;9.128;2024-01-30T01:20:04;0.13;;;0.13;;
22107;SDS011;11220;48.812;9.128;2024-01-30T01:22:31;0.28;;;0.28;;
22107;SDS011;11220;48.812;9.128;2024-01-30T01:24:57;0.30;;;0.30;;
22107;SDS011;11220;48.812;9.128;2024-01-30T01:27:23;0.30;;;0.30;;
22107;SDS011;11220;48.812;9.128;2024-01-30T01:29:48;0.20;;;0.20;;
22107;SDS011;11220;48.812;9.128;2024-01-30T01:32:14;0.22;;;0.22;;
22107;SDS011;11220;48.812;9.128;2024-01-30T01:34:39;0.20;;;0.20;;
22107;SDS011;11220;48.812;9.128;2024-01-30T01:37:05;0.25;;;0.25;;
22107;SDS011;11220;48.812;9.128;2024-01-30T01:39:30;0.22;;;0.20;;
22107;SDS011;11220;48.812;9.128;2024-01-30T01:41:56;0.45;;;0.30;;
22107;SDS011;11220;48.812;9.128;2024-01-30T01:44:21;0.30;;;0.28;;
22107;SDS011;11220;48.812;9.128;2024-01-30T01:46:47;0.32;;;0.25;;
22107;SDS011;11220;48.812;9.128;2024-01-30T01:49:13;0.30;;;0.30;;
22107;SDS011;11220;48.812;9.128;2024-01-30T01:51:39;0.20;;;0.20;;
22107;SDS011;11220;48.812;9.128;2024-01-30T01:54:06;0.20;;;0.20;;
22107;SDS011;11220;48.812;9.128;2024-01-30T01:56:32;0.25;;;0.25;;
22107;SDS011;11220;48.812;9.128;2024-01-30T01:58:59;0.30;;;0.30;;
22107;SDS011;11220;48.812;9.128;2024-01-30T02:01:30;0.20;;;0.20;;
22107;SDS011;11220;48.812;9.128;2024-01-30T02:03:58;0.20;;;0.20;;
22107;SDS011;11220;48.812;9.128;2024-01-30T02:06:24;0.20;;;0.20;;
22107;SDS011;11220;48.812;9.128;2024-01-30T02:08:49;0.20;;;0.20;;
22107;SDS011;11220;48.812;9.128;2024-01-30T02:11:15;0.30;;;0.30;;
22107;SDS011;11220;48.812;9.128;2024-01-30T02:13:41;0.32;;;0.20;;
22107;SDS011;11220;48.812;9.128;2024-01-30T02:16:07;0.20;;;0.20;;
22107;SDS011;11220;48.812;9.128;2024-01-30T02:18:32;0.20;;;0.20;;
22107;SDS011;11220;48.812;9.128;2024-01-30T02:20:58;0.38;;;0.28;;
22107;SDS011;11220;48.812;9.128;2024-01-30T02:23:28;0.20;;;0.20;;
22107;SDS011;11220;48.812;9.128;2024-01-30T02:25:55;0.30;;;0.30;;
22107;SDS011;11220;48.812;9.128;2024-01-30T02:28:21;0.30;;;0.28;;
22107;SDS011;11220;48.812;9.128;2024-01-30T02:30:46;0.22;;;0.20;;
22107;SDS011;11220;48.812;9.128;2024-01-30T02:33:12;0.30;;;0.20;;
22107;SDS011;11220;48.812;9.128;2024-01-30T02:35:38;0.20;;;0.20;;
22107;SDS011;11220;48.812;9.128;2024-01-30T02:38:04;0.30;;;0.30;;
22107;SDS011;11220;48.812;9.128;2024-01-30T02:40:30;0.40;;;0.40;;
22107;SDS011;11220;48.812;9.128;2024-01-30T02:42:56;0.43;;;0.30;;
22107;SDS011;11220;48.812;9.128;2024-01-30T02:45:22;0.40;;;0.40;;
22107;SDS011;11220;48.812;9.128;2024-01-30T02:47:48;0.25;;;0.25;;
22107;SDS011;11220;48.812;9.128;2024-01-30T02:50:13;0.60;;;0.40;;
22107;SDS011;11220;48.812;9.128;2024-01-30T02:52:40;0.35;;;0.20;;
22107;SDS011;11220;48.812;9.128;2024-01-30T02:55:05;0.38;;;0.25;;
22107;SDS011;11220;48.812;9.128;2024-01-30T02:57:31;0.20;;;0.20;;
22107;SDS011;11220;48.812;9.128;2024-01-30T02:59:57;0.17;;;0.17;;
22107;SDS011;11220;48.812;9.128;2024-01-30T03:02:22;0.20;;;0.20;;
22107;SDS011;11220;48.812;9.128;2024-01-30T03:04:48;0.20;;;0.20;;
22107;SDS011;11220;48.812;9.128;2024-01-30T03:07:14;0.30;;;0.30;;
22107;SDS011;11220;48.812;9.128;2024-01-30T03:09:40;0.30;;;0.30;;
22107;SDS011;11220;48.812;9.128;2024-01-30T03:12:07;0.20;;;0.20;;
22107;SDS011;11220;48.812;9.128;2024-01-30T03:14:33;0.40;;;0.40;;
22107;SDS011;11220;48.812;9.128;2024-01-30T03:16:58;0.35;;;0.20;;
22107;SDS011;11220;48.812;9.128;2024-01-30T03:19:24;0.13;;;0.13;;
22107;SDS011;11220;48.812;9.128;2024-01-30T03:21:50;0.22;;;0.22;;
22107;SDS011;11220;48.812;9.128;2024-01-30T03:24:16;0.20;;;0.20;;
22107;SDS011;11220;48.812;9.128;2024-01-30T03:26:42;0.20;;;0.20;;
22107;SDS011;11220;48.812;9.128;2024-01-30T03:29:08;0.28;;;0.28;;
22107;SDS011;11220;48.812;9.128;2024-01-30T03:31:34;0.28;;;0.20;;
22107;SDS011;11220;48.812;9.128;2024-01-30T03:34:00;0.32;;;0.30;;
22107;SDS011;11220;48.812;9.128;2024-01-30T03:36:27;0.32;;;0.20;;
22107;SDS011;11220;48.812;9.128;2024-01-30T03:38:53;0.20;;;0.20;;
22107;SDS011;11220;48.812;9.128;2024-01-30T03:41:18;0.20;;;0.20;;
22107;SDS011;11220;48.812;9.128;2024-01-30T03:43:44;0.40;;;0.30;;
22107;SDS011;11220;48.812;9.128;2024-01-30T03:46:11;0.20;;;0.20;;
22107;SDS011;11220;48.812;9.128;2024-01-30T03:48:37;0.63;;;0.20;;
22107;SDS011;11220;48.812;9.128;2024-01-30T03:51:03;0.20;;;0.20;;
22107;SDS011;11220;48.812;9.128;2024-01-30T03:53:28;0.20;;;0.10;;
22107;SDS011;11220;48.812;9.128;2024-01-30T03:55:54;0.17;;;0.17;;
22107;SDS011;11220;48.812;9.128;2024-01-30T03:58:20;0.20;;;0.20;;
22107;SDS011;11220;48.812;9.128;2024-01-30T04:00:45;0.20;;;0.20;;
22107;SDS011;11220;48.812;9.128;2024-01-30T04:03:11;0.30;;;0.28;;
22107;SDS011;11220;48.812;9.128;2024-01-30T04:05:36;0.13;;;0.13;;
22107;SDS011;11220;48.812;9.128;2024-01-30T04:08:02;0.20;;;0.20;;
22107;SDS011;11220;48.812;9.128;2024-01-30T04:10:27;0.20;;;0.20;;
22107;SDS011;11220;48.812;9.128;2024-01-30T04:12:53;0.30;;;0.22;;
22107;SDS011;11220;48.812;9.128;2024-01-30T04:15:19;0.28;;;0.28;;
22107;SDS011;11220;48.812;9.128;2024-01-30T04:17:44;0.30;;;0.30;;
22107;SDS011;11220;48.812;9.128;2024-01-30T04:20:13;0.15;;;0.15;;
22107;SDS011;11220;48.812;9.128;2024-01-30T04:22:43;0.30;;;0.30;;
22107;SDS011;11220;48.812;9.128;2024-01-30T04:25:09;0.40;;;0.30;;
22107;SDS011;11220;48.812;9.128;2024-01-30T04:27:35;0.20;;;0.20;;
22107;SDS011;11220;48.812;9.128;2024-01-30T04:30:00;0.28;;;0.28;;
22107;SDS011;11220;48.812;9.128;2024-01-30T04:32:26;0.30;;;0.20;;
22107;SDS011;11220;48.812;9.128;2024-01-30T04:34:51;0.45;;;0.30;;
22107;SDS011;11220;48.812;9.128;2024-01-30T04:37:17;0.15;;;0.15;;
22107;SDS011;11220;48.812;9.128;2024-01-30T04:39:42;0.20;;;0.20;;
22107;SDS011;11220;48.812;9.128;2024-01-30T04:42:08;0.20;;;0.20;;
22107;SDS011;11220;48.812;9.128;2024-01-30T04:44:33;0.20;;;0.20;;
22107;SDS011;11220;48.812;9.128;2024-01-30T04:46:59;0.40;;;0.30;;
22107;SDS011;11220;48.812;9.128;2024-01-30T04:49:26;0.20;;;0.20;;
22107;SDS011;11220;48.812;9.128;2024-01-30T04:51:52;0.63;;;0.20;;
22107;SDS011;11220;48.812;9.128;2024-01-30T04:54:17;0.28;;;0.20;;
22107;SDS011;11220;48.812;9.128;2024-01-30T04:56:43;0.20;;;0.20;;
22107;SDS011;11220;48.812;9.128;2024-01-30T04:59:08;0.20;;;0.20;;
22107;SDS011;11220;48.812;9.128;2024-01-30T05:01:34;0.10;;;0.10;;
22107;SDS011;11220;48.812;9.128;2024-01-30T05:03:59;0.30;;;0.30;;
22107;SDS011;11220;48.812;9.128;2024-01-30T05:06:26;0.20;;;0.20;;
22107;SDS011;11220;48.812;9.128;2024-01-30T05:08:52;0.10;;;0.10;;
22107;SDS011;11220;48.812;9.128;2024-01-30T05:11:17;0.20;;;0.20;;
22107;SDS011;11220;48.812;9.128;2024-01-30T05:13:43;0.30;;;0.20;;
22107;SDS011;11220;48.812;9.128;2024-01-30T05:16:08;0.20;;;0.20;;
22107;SDS011;11220;48.812;9.128;2024-01-30T05:18:34;0.20;;;0.20;;
22107;SDS011;11220;48.812;9.128;2024-01-30T05:20:59;0.20;;;0.20;;
22107;SDS011;11220;48.812;9.128;2024-01-30T05:23:25;0.30;;;0.30;;
22107;SDS011;11220;48.812;9.128;2024-01-30T05:25:50;0.20;;;0.20;;
22107;SDS011;11220;48.812;9.128;2024-01-30T05:28:16;0.20;;;0.20;;
22107;SDS011;11220;48.812;9.128;2024-01-30T05:30:42;0.20;;;0.20;;
22107;SDS011;11220;48.812;9.128;2024-01-30T05:33:07;0.22;;;0.22;;
22107;SDS011;11220;48.812;9.128;2024-01-30T05:35:33;0.38;;;0.30;;
22107;SDS011;11220;48.812;9.128;2024-01-30T05:37:58;0.30;;;0.20;;
22107;SDS011;11220;48.812;9.128;2024-01-30T05:40:24;0.10;;;0.10;;
22107;SDS011;11220;48.812;9.128;2024-01-30T05:42:49;0.20;;;0.20;;
22107;SDS011;11220;48.812;9.128;2024-01-30T05:45:15;0.20;;;0.20;;
22107;SDS011;11220;48.812;9.128;2024-01-30T05:47:40;0.30;;;0.30;;
22107;SDS011;11220;48.812;9.128;2024-01-30T05:50:06;0.20;;;0.20;;
22107;SDS011;11220;48.812;9.128;2024-01-30T05:52:32;0.20;;;0.13;;
22107;SDS011;11220;48.812;9.128;2024-01-30T05:54:57;0.40;;;0.30;;
22107;SDS011;11220;48.812;9.128;2024-01-30T05:57:23;0.20;;;0.20;;
22107;SDS011;11220;48.812;9.128;2024-01-30T05:59:48;0.55;;;0.25;;
22107;SDS011;11220;48.812;9.128;2024-01-30T06:02:16;0.65;;;0.40;;
22107;SDS011;11220;48.812;9.128;2024-01-30T06:04:42;0.20;;;0.20;;
22107;SDS011;11220;48.812;9.128;2024-01-30T06:07:07;0.20;;;0.20;;
22107;SDS011;11220;48.812;9.128;2024-01-30T06:09:33;0.17;;;0.17;;
22107;SDS011;11220;48.812;9.128;2024-01-30T06:11:58;0.65;;;0.22;;
22107;SDS011;11220;48.812;9.128;2024-01-30T06:14:24;0.20;;;0.10;;
22107;SDS011;11220;48.812;9.128;2024-01-30T06:16:49;0.20;;;0.20;;
22107;SDS011;11220;48.812;9.128;2024-01-30T06:19:15;0.13;;;0.13;;
22107;SDS011;11220;48.812;9.128;2024-01-30T06:21:40;0.20;;;0.20;;
22107;SDS011;11220;48.812;9.128;2024-01-30T06:24:06;0.20;;;0.20;;
22107;SDS011;11220;48.812;9.128;2024-01-30T06:26:32;0.32;;;0.25;;
22107;SDS011;11220;48.812;9.128;2024-01-30T06:28:57;0.30;;;0.28;;
22107;SDS011;11220;48.812;9.128;2024-01-30T06:31:23;0.20;;;0.20;;
22107;SDS011;11220;48.812;9.128;2024-01-30T06:33:49;0.20;;;0.20;;
22107;SDS011;11220;48.812;9.128;2024-01-30T06:36:14;0.20;;;0.20;;
22107;SDS011;11220;48.812;9.128;2024-01-30T06:38:40;0.20;;;0.20;;
22107;SDS011;11220;48.812;9.128;2024-01-30T06:41:06;0.30;;;0.30;;
22107;SDS011;11220;48.812;9.128;2024-01-30T06:43:31;0.20;;;0.15;;
22107;SDS011;11220;48.812;9.128;2024-01-30T06:45:57;0.20;;;0.20;;
22107;SDS011;11220;48.812;9.128;2024-01-30T06:48:23;0.13;;;0.13;;
22107;SDS011;11220;48.812;9.128;2024-01-30T06:50:48;0.30;;;0.30;;
22107;SDS011;11220;48.812;9.128;2024-01-30T06:53:14;0.17;;;0.17;;
22107;SDS011;11220;48.812;9.128;2024-01-30T06:55:40;0.25;;;0.25;;
22107;SDS011;11220;48.812;9.128;2024-01-30T06:58:05;0.20;;;0.20;;
22107;SDS011;11220;48.812;9.128;2024-01-30T07:00:31;0.43;;;0.20;;
22107;SDS011;11220;48.812;9.128;2024-01-30T07:02:56;0.17;;;0.17;;
22107;SDS011;11220;48.812;9.128;2024-01-30T07:05:22;0.10;;;0.10;;
22107;SDS011;11220;48.812;9.128;2024-01-30T07:07:47;0.10;;;0.10;;
22107;SDS011;11220;48.812;9.128;2024-01-30T07:10:13;0.10;;;0.10;;
22107;SDS011;11220;48.812;9.128;2024-01-30T07:12:39;0.35;;;0.20;;
22107;SDS011;11220;48.812;9.128;2024-01-30T07:15:05;0.45;;;0.20;;
22107;SDS011;11220;48.812;9.128;2024-01-30T07:17:34;0.10;;;0.10;;
22107;SDS011;11220;48.812;9.128;2024-01-30T07:20:00;0.30;;;0.20;;
22107;SDS011;11220;48.812;9.128;2024-01-30T07:22:25;0.20;;;0.20;;
22107;SDS011;11220;48.812;9.128;2024-01-30T07:24:51;0.17;;;0.10;;
22107;SDS011;11220;48.812;9.128;2024-01-30T07:27:17;0.25;;;0.25;;
22107;SDS011;11220;48.812;9.128;2024-01-30T07:29:43;0.20;;;0.20;;
22107;SDS011;11220;48.812;9.128;2024-01-30T07:32:08;0.10;;;0.10;;
22107;SDS011;11220;48.812;9.128;2024-01-30T07:34:34;0.20;;;0.20;;
22107;SDS011;11220;48.812;9.128;2024-01-30T07:37:01;0.38;;;0.20;;
22107;SDS011;11220;48.812;9.128;2024-01-30T07:39:26;0.32;;;0.20;;
22107;SDS011;11220;48.812;9.128;2024-01-30T07:41:52;0.20;;;0.20;;
22107;SDS011;11220;48.812;9.128;2024-01-30T07:44:18;0.30;;;0.20;;
22107;SDS011;11220;48.812;9.128;2024-01-30T07:46:43;0.15;;;0.15;;
22107;SDS011;11220;48.812;9.128;2024-01-30T07:49:09;0.20;;;0.20;;
22107;SDS011;11220;48.812;9.128;2024-01-30T07:51:35;0.17;;;0.17;;
22107;SDS011;11220;48.812;9.128;2024-01-30T07:54:00;0.25;;;0.20;;
22107;SDS011;11220;48.812;9.128;2024-01-30T07:56:26;0.30;;;0.20;;
22107;SDS011;11220;48.812;9.128;2024-01-30T07:58:51;0.20;;;0.20;;
22107;SDS011;11220;48.812;9.128;2024-01-30T08:01:17;0.20;;;0.20;;
22107;SDS011;11220;48.812;9.128;2024-01-30T08:03:43;0.20;;;0.20;;
22107;SDS011;11220;48.812;9.128;2024-01-30T08:06:09;0.20;;;0.20;;
22107;SDS011;11220;48.812;9.128;2024-01-30T08:08:35;0.43;;;0.40;;
22107;SDS011;11220;48.812;9.128;2024-01-30T08:11:00;0.20;;;0.20;;
22107;SDS011;11220;48.812;9.128;2024-01-30T08:13:26;0.10;;;0.10;;
22107;SDS011;11220;48.812;9.128;2024-01-30T08:15:51;0.25;;;0.20;;
22107;SDS011;11220;48.812;9.128;2024-01-30T08:18:17;0.20;;;0.20;;
22107;SDS011;11220;48.812;9.128;2024-01-30T08:20:42;0.20;;;0.20;;
22107;SDS011;11220;48.812;9.128;2024-01-30T08:23:08;0.20;;;0.20;;
22107;SDS011;11220;48.812;9.128;2024-01-30T08:25:33;0.10;;;0.10;;
22107;SDS011;11220;48.812;9.128;2024-01-30T08:27:59;0.10;;;0.10;;
22107;SDS011;11220;48.812;9.128;2024-01-30T08:30:25;0.20;;;0.20;;
22107;SDS011;11220;48.812;9.128;2024-01-30T08:32:50;0.25;;;0.25;;
22107;SDS011;11220;48.812;9.128;2024-01-30T08:35:16;0.20;;;0.20;;
22107;SDS011;11220;48.812;9.128;2024-01-30T08:37:42;0.13;;;0.13;;
22107;SDS011;11220;48.812;9.128;2024-01-30T08:40:08;0.20;;;0.10;;
22107;SDS011;11220;48.812;9.128;2024-01-30T08:42:34;0.20;;;0.20;;
22107;SDS011;11220;48.812;9.128;2024-01-30T08:44:59;0.20;;;0.20;;
22107;SDS011;11220;48.812;9.128;2024-01-30T08:47:25;0.13;;;0.13;;
22107;SDS011;11220;48.812;9.128;2024-01-30T08:49:50;0.30;;;0.30;;
22107;SDS011;11220;48.812;9.128;2024-01-30T08:52:16;0.32;;;0.30;;
22107;SDS011;11220;48.812;9.128;2024-01-30T08:54:42;0.30;;;0.30;;
22107;SDS011;11220;48.812;9.128;2024-01-30T08:57:08;0.10;;;0.10;;
22107;SDS011;11220;48.812;9.128;2024-01-30T08:59:33;0.40;;;0.30;;
22107;SDS011;11220;48.812;9.128;2024-01-30T09:01:59;0.25;;;0.20;;
22107;SDS011;11220;48.812;9.128;2024-01-30T09:04:25;0.20;;;0.20;;
22107;SDS011;11220;48.812;9.128;2024-01-30T09:06:50;0.22;;;0.22;;
22107;SDS011;11220;48.812;9.128;2024-01-30T09:09:16;0.20;;;0.20;;
22107;SDS011;11220;48.812;9.128;2024-01-30T09:11:42;0.20;;;0.20;;
22107;SDS011;11220;48.812;9.128;2024-01-30T09:14:08;0.25;;;0.22;;
22107;SDS011;11220;48.812;9.128;2024-01-30T09:16:34;0.10;;;0.10;;
22107;SDS011;11220;48.812;9.128;2024-01-30T09:18:59;0.30;;;0.30;;
22107;SDS011;11220;48.812;9.128;2024-01-30T09:21:25;0.20;;;0.20;;
22107;SDS011;11220;48.812;9.128;2024-01-30T09:23:51;0.20;;;0.20;;
22107;SDS011;11220;48.812;9.128;2024-01-30T09:26:19;0.20;;;0.20;;
22107;SDS011;11220;48.812;9.128;2024-01-30T09:28:45;0.20;;;0.20;;
22107;SDS011;11220;48.812;9.128;2024-01-30T09:31:11;0.20;;;0.20;;
22107;SDS011;11220;48.812;9.128;2024-01-30T09:33:37;0.55;;;0.30;;
22107;SDS011;11220;48.812;9.128;2024-01-30T09:36:03;0.20;;;0.20;;
22107;SDS011;11220;48.812;9.128;2024-01-30T09:38:28;0.20;;;0.20;;
22107;SDS011;11220;48.812;9.128;2024-01-30T09:40:54;0.40;;;0.20;;
22107;SDS011;11220;48.812;9.128;2024-01-30T09:43:23;0.20;;;0.20;;
22107;SDS011;11220;48.812;9.128;2024-01-30T09:45:51;0.30;;;0.20;;
22107;SDS011;11220;48.812;9.128;2024-01-30T09:48:18;0.20;;;0.20;;
22107;SDS011;11220;48.812;9.128;2024-01-30T09:50:44;0.20;;;0.20;;
22107;SDS011;11220;48.812;9.128;2024-01-30T09:53:10;0.20;;;0.20;;
22107;SDS011;11220;48.812;9.128;2024-01-30T09:55:38;0.30;;;0.30;;
22107;SDS011;11220;48.812;9.128;2024-01-30T09:58:07;0.25;;;0.25;;
22107;SDS011;11220;48.812;9.128;2024-01-30T10:00:33;0.20;;;0.20;;
22107;SDS011;11220;48.812;9.128;2024-01-30T10:02:58;0.30;;;0.30;;
22107;SDS011;11220;48.812;9.128;2024-01-30T10:05:26;0.28;;;0.25;;
22107;SDS011;11220;48.812;9.128;2024-01-30T10:07:53;0.82;;;0.28;;
22107;SDS011;11220;48.812;9.128;2024-01-30T10:10:22;0.40;;;0.30;;
22107;SDS011;11220;48.812;9.128;2024-01-30T10:12:51;0.32;;;0.32;;
22107;SDS011;11220;48.812;9.128;2024-01-30T10:15:17;0.30;;;0.20;;
22107;SDS011;11220;48.812;9.128;2024-01-30T10:17:47;0.35;;;0.30;;
22107;SDS011;11220;48.812;9.128;2024-01-30T10:20:12;0.40;;;0.30;;
22107;SDS011;11220;48.812;9.128;2024-01-30T10:22:39;0.30;;;0.30;;
22107;SDS011;11220;48.812;9.128;2024-01-30T10:25:09;0.35;;;0.30;;
22107;SDS011;11220;48.812;9.128;2024-01-30T10:27:35;0.20;;;0.20;;
22107;SDS011;11220;48.812;9.128;2024-01-30T10:30:01;0.30;;;0.30;;
22107;SDS011;11220;48.812;9.128;2024-01-30T10:32:28;0.32;;;0.32;;
22107;SDS011;11220;48.812;9.128;2024-01-30T10:34:54;0.30;;;0.28;;
22107;SDS011;11220;48.812;9.128;2024-01-30T10:37:20;0.50;;;0.20;;
22107;SDS011;11220;48.812;9.128;2024-01-30T10:39:49;0.50;;;0.40;;
22107;SDS011;11220;48.812;9.128;2024-01-30T10:42:18;0.35;;;0.30;;
22107;SDS011;11220;48.812;9.128;2024-01-30T10:45:05;0.30;;;0.30;;
22107;SDS011;11220;48.812;9.128;2024-01-30T10:47:33;0.32;;;0.30;;
22107;SDS011;11220;48.812;9.128;2024-01-30T10:50:03;0.38;;;0.30;;
22107;SDS011;11220;48.812;9.128;2024-01-30T10:52:28;0.43;;;0.28;;
22107;SDS011;11220;48.812;9.128;2024-01-30T10:54:55;0.30;;;0.30;;
22107;SDS011;11220;48.812;9.128;2024-01-30T10:57:24;0.25;;;0.25;;
22107;SDS011;11220;48.812;9.128;2024-01-30T10:59:52;0.30;;;0.30;;
22107;SDS011;11220;48.812;9.128;2024-01-30T11:02:20;0.45;;;0.28;;
22107;SDS011;11220;48.812;9.128;2024-01-30T11:04:48;0.40;;;0.32;;
22107;SDS011;11220;48.812;9.128;2024-01-30T11:07:17;0.30;;;0.30;;
22107;SDS011;11220;48.812;9.128;2024-01-30T11:09:50;0.40;;;0.40;;
22107;SDS011;11220;48.812;9.128;2024-01-30T11:12:16;0.30;;;0.30;;
22107;SDS011;11220;48.812;9.128;2024-01-30T11:14:46;0.40;;;0.40;;
22107;SDS011;11220;48.812;9.128;2024-01-30T11:17:11;0.40;;;0.32;;
22107;SDS011;11220;48.812;9.128;2024-01-30T11:19:37;0.43;;;0.40;;
22107;SDS011;11220;48.812;9.128;2024-01-30T11:22:03;0.40;;;0.40;;
22107;SDS011;11220;48.812;9.128;2024-01-30T11:24:31;0.63;;;0.30;;
22107;SDS011;11220;48.812;9.128;2024-01-30T11:27:08;0.50;;;0.40;;
22107;SDS011;11220;48.812;9.128;2024-01-30T11:29:35;0.38;;;0.38;;
22107;SDS011;11220;48.812;9.128;2024-01-30T11:32:01;0.40;;;0.30;;
22107;SDS011;11220;48.812;9.128;2024-01-30T11:34:27;0.40;;;0.40;;
22107;SDS011;11220;48.812;9.128;2024-01-30T11:36:55;0.43;;;0.43;;
22107;SDS011;11220;48.812;9.128;2024-01-30T11:39:25;0.25;;;0.25;;
22107;SDS011;11220;48.812;9.128;2024-01-30T11:41:51;0.57;;;0.35;;
22107;SDS011;11220;48.812;9.128;2024-01-30T11:44:18;0.55;;;0.30;;
22107;SDS011;11220;48.812;9.128;2024-01-30T11:46:48;0.57;;;0.20;;
22107;SDS011;11220;48.812;9.128;2024-01-30T11:49:14;0.50;;;0.40;;
22107;SDS011;11220;48.812;9.128;2024-01-30T11:51:40;0.57;;;0.43;;
22107;SDS011;11220;48.812;9.128;2024-01-30T11:54:07;0.52;;;0.30;;
22107;SDS011;11220;48.812;9.128;2024-01-30T11:56:33;0.70;;;0.50;;
22107;SDS011;11220;48.812;9.128;2024-01-30T11:58:58;0.40;;;0.40;;
22107;SDS011;11220;48.812;9.128;2024-01-30T12:01:25;0.40;;;0.40;;
22107;SDS011;11220;48.812;9.128;2024-01-30T12:03:51;1.08;;;0.47;;
22107;SDS011;11220;48.812;9.128;2024-01-30T12:06:17;0.45;;;0.38;;
22107;SDS011;11220;48.812;9.128;2024-01-30T12:08:42;0.35;;;0.32;;
22107;SDS011;11220;48.812;9.128;2024-01-30T12:11:09;0.40;;;0.40;;
22107;SDS011;11220;48.812;9.128;2024-01-30T12:13:34;0.63;;;0.30;;
22107;SDS011;11220;48.812;9.128;2024-01-30T12:16:00;0.40;;;0.35;;
22107;SDS011;11220;48.812;9.128;2024-01-30T12:18:26;0.57;;;0.45;;
22107;SDS011;11220;48.812;9.128;2024-01-30T12:20:58;0.60;;;0.50;;
22107;SDS011;11220;48.812;9.128;2024-01-30T12:23:24;0.30;;;0.30;;
22107;SDS011;11220;48.812;9.128;2024-01-30T12:25:51;0.55;;;0.43;;
22107;SDS011;11220;48.812;9.128;2024-01-30T12:28:17;0.40;;;0.40;;
22107;SDS011;11220;48.812;9.128;2024-01-30T12:30:43;0.38;;;0.30;;
22107;SDS011;11220;48.812;9.128;2024-01-30T12:33:08;0.55;;;0.40;;
22107;SDS011;11220;48.812;9.128;2024-01-30T12:35:35;0.40;;;0.30;;
22107;SDS011;11220;48.812;9.128;2024-01-30T12:38:00;0.35;;;0.30;;
22107;SDS011;11220;48.812;9.128;2024-01-30T12:40:27;0.50;;;0.40;;
22107;SDS011;11220;48.812;9.128;2024-01-30T12:42:53;0.45;;;0.40;;
22107;SDS011;11220;48.812;9.128;2024-01-30T12:45:19;0.50;;;0.50;;
22107;SDS011;11220;48.812;9.128;2024-01-30T12:47:46;0.40;;;0.35;;
22107;SDS011;11220;48.812;9.128;2024-01-30T12:50:12;0.40;;;0.40;;
22107;SDS011;11220;48.812;9.128;2024-01-30T12:52:40;0.75;;;0.45;;
22107;SDS011;11220;48.812;9.128;2024-01-30T12:55:06;0.80;;;0.40;;
22107;SDS011;11220;48.812;9.128;2024-01-30T12:57:32;0.80;;;0.20;;
22107;SDS011;11220;48.812;9.128;2024-01-30T12:59:57;0.40;;;0.40;;
22107;SDS011;11220;48.812;9.128;2024-01-30T13:02:23;0.40;;;0.40;;
22107;SDS011;11220;48.812;9.128;2024-01-30T13:04:49;0.30;;;0.30;;
22107;SDS011;11220;48.812;9.128;2024-01-30T13:07:14;0.40;;;0.40;;
22107;SDS011;11220;48.812;9.128;2024-01-30T13:09:40;0.20;;;0.20;;
22107;SDS011;11220;48.812;9.128;2024-01-30T13:12:06;0.60;;;0.47;;
22107;SDS011;11220;48.812;9.128;2024-01-30T13:17:22;0.57;;;0.40;;
22107;SDS011;11220;48.812;9.128;2024-01-30T13:19:48;0.80;;;0.40;;
22107;SDS011;11220;48.812;9.128;2024-01-30T13:22:14;0.30;;;0.30;;
22107;SDS011;11220;48.812;9.128;2024-01-30T13:24:40;0.50;;;0.40;;
22107;SDS011;11220;48.812;9.128;2024-01-30T13:27:06;0.40;;;0.40;;
22107;SDS011;11220;48.812;9.128;2024-01-30T13:29:32;0.55;;;0.50;;
22107;SDS011;11220;48.812;9.128;2024-01-30T13:31:57;0.60;;;0.40;;
22107;SDS011;11220;48.812;9.128;2024-01-30T13:34:23;0.43;;;0.40;;
22107;SDS011;11220;48.812;9.128;2024-01-30T13:36:49;0.40;;;0.40;;
22107;SDS011;11220;48.812;9.128;2024-01-30T13:39:15;0.57;;;0.35;;
22107;SDS011;11220;48.812;9.128;2024-01-30T13:41:41;0.38;;;0.35;;
22107;SDS011;11220;48.812;9.128;2024-01-30T13:44:07;0.47;;;0.40;;
22107;SDS011;11220;48.812;9.128;2024-01-30T13:46:33;0.40;;;0.40;;
22107;SDS011;11220;48.812;9.128;2024-01-30T13:48:59;0.80;;;0.60;;
22107;SDS011;11220;48.812;9.128;2024-01-30T13:51:25;0.47;;;0.47;;
22107;SDS011;11220;48.812;9.128;2024-01-30T13:53:50;0.65;;;0.47;;
22107;SDS011;11220;48.812;9.128;2024-01-30T13:56:16;0.55;;;0.55;;
22107;SDS011;11220;48.812;9.128;2024-01-30T13:58:41;0.50;;;0.50;;
22107;SDS011;11220;48.812;9.128;2024-01-30T14:01:07;0.65;;;0.50;;
22107;SDS011;11220;48.812;9.128;2024-01-30T14:03:34;0.95;;;0.50;;
22107;SDS011;11220;48.812;9.128;2024-01-30T14:06:00;1.40;;;0.77;;
22107;SDS011;11220;48.812;9.128;2024-01-30T14:08:25;0.90;;;0.55;;
22107;SDS011;11220;48.812;9.128;2024-01-30T14:10:53;0.52;;;0.50;;
22107;SDS011;11220;48.812;9.128;2024-01-30T14:13:20;0.70;;;0.60;;
22107;SDS011;11220;48.812;9.128;2024-01-30T14:15:46;0.88;;;0.75;;
22107;SDS011;11220;48.812;9.128;2024-01-30T14:18:11;0.65;;;0.65;;
22107;SDS011;11220;48.812;9.128;2024-01-30T14:20:37;0.90;;;0.70;;
22107;SDS011;11220;48.812;9.128;2024-01-30T14:23:02;0.88;;;0.80;;
22107;SDS011;11220;48.812;9.128;2024-01-30T14:25:28;0.60;;;0.60;;
22107;SDS011;11220;48.812;9.128;2024-01-30T14:27:53;0.98;;;0.70;;
22107;SDS011;11220;48.812;9.128;2024-01-30T14:30:19;0.60;;;0.60;;
22107;SDS011;11220;48.812;9.128;2024-01-30T14:32:45;1.08;;;0.70;;
22107;SDS011;11220;48.812;9.128;2024-01-30T14:35:11;1.20;;;0.82;;
22107;SDS011;11220;48.812;9.128;2024-01-30T14:37:37;1.25;;;0.70;;
22107;SDS011;11220;48.812;9.128;2024-01-30T14:40:03;1.17;;;0.80;;
22107;SDS011;11220;48.812;9.128;2024-01-30T14:42:32;1.02;;;0.60;;
22107;SDS011;11220;48.812;9.128;2024-01-30T14:44:57;1.00;;;0.88;;